Weather at Wurtz Airport [CLOSED]

Public forecast

Using degrees Fahrenheit for public forecast. Weather courtesy of forecast.io.

Closest aviation weather report (METAR) to Wurtz Airport

Closest report is Glacier Park International Airport, 36.0 nm (66.8 km) S.

2024/07/19 19:55 (retrieved 46 minutes ago)

KGPI 191955Z 14006KT 10SM CLR 32/11 A3014 RMK AO2 SLP185 T03170106

Closest aviation forecast (TAF) to Wurtz Airport

Closest forecast is Glacier Park International Airport, 36.0 nm (66.8 km) S.

2024/07/19 18:22 (retrieved 2 hours ago)

TAF KGPI 191720Z 1918/2018 02009KT P6SM SKC FM192200 VRB06KT P6SM SKC FM200600 00000KT 6SM FU SKC